Time;durP1;ratioP1;P1;durP2;ratioP2;P2;SDS_P1;SDS_P2;PMS_P1;PMS_P2;Temp;Humidity;BMP_temperature;BMP_pressure;BME280_temperature;BME280_humidity;BME280_pressure;Samples;Min_cycle;Max_cycle;Signal;HPM_P1;HPM_P2
2021/12/14 00:01:19;;;;;;;8.38;2.33;;;;;;;4.89;100.00;101289.81;6303894;22;20011;-89
2021/12/14 00:03:51;;;;;;;9.65;3.13;;;;;;;4.91;100.00;101290.69;6306392;22;20334;-90
2021/12/14 00:06:20;;;;;;;12.67;2.87;;;;;;;4.94;100.00;101275.09;6305820;22;20704;-90
2021/12/14 00:08:54;;;;;;;8.95;2.17;;;;;;;4.96;100.00;101280.28;6305688;22;20524;-90
2021/12/14 00:17:10;;;;;;;10.80;2.30;;;;;;;4.98;100.00;101275.94;6307427;22;20027;-90
2021/12/14 00:19:37;;;;;;;11.23;3.33;;;;;;;4.95;100.00;101279.41;6306097;22;20029;-90
2021/12/14 00:22:18;;;;;;;10.50;3.33;;;;;;;4.83;100.00;101269.09;6304488;22;20019;-90
2021/12/14 00:24:46;;;;;;;8.65;2.50;;;;;;;4.75;100.00;101271.72;6305251;22;20336;-90
2021/12/14 00:27:18;;;;;;;7.95;2.60;;;;;;;4.81;100.00;101273.41;6307059;22;20025;-90
2021/12/14 00:29:53;;;;;;;6.35;2.28;;;;;;;4.83;100.00;101263.91;6304618;22;20022;-90
2021/12/14 00:32:23;;;;;;;10.68;2.40;;;;;;;4.61;100.00;101259.72;6303198;22;20026;-90
2021/12/14 00:34:52;;;;;;;13.55;3.40;;;;;;;4.68;100.00;101276.97;6305755;22;20019;-90
2021/12/14 00:37:32;;;;;;;9.52;2.85;;;;;;;4.60;100.00;101258.81;6305961;22;20019;-89
2021/12/14 00:40:05;;;;;;;8.32;3.10;;;;;;;4.49;100.00;101245.06;6306682;22;20471;-90
2021/12/14 00:42:32;;;;;;;12.27;2.97;;;;;;;4.54;100.00;101241.56;6304841;22;20030;-90
2021/12/14 00:44:59;;;;;;;14.52;2.58;;;;;;;4.54;100.00;101220.81;6306398;22;20034;-90
2021/12/14 00:47:25;;;;;;;9.88;2.72;;;;;;;4.64;100.00;101233.72;6304715;22;20094;-90
2021/12/14 00:49:54;;;;;;;8.77;3.05;;;;;;;4.63;100.00;101219.06;6305018;22;20023;-90
2021/12/14 00:52:22;;;;;;;9.75;2.80;;;;;;;4.58;100.00;101208.69;6304271;22;20047;-90
2021/12/14 00:54:49;;;;;;;7.63;2.20;;;;;;;4.86;100.00;101234.50;6305869;22;20025;-90
2021/12/14 00:57:16;;;;;;;9.85;2.70;;;;;;;4.61;100.00;101239.81;6305919;22;20449;-89
2021/12/14 00:59:44;;;;;;;9.35;2.28;;;;;;;4.83;100.00;101247.47;6305413;22;20022;-90
2021/12/14 01:02:14;;;;;;;12.60;3.05;;;;;;;4.59;100.00;101236.38;6303178;22;20019;-90
2021/12/14 01:04:55;;;;;;;13.82;2.95;;;;;;;4.79;100.00;101243.19;6305481;22;20341;-90
2021/12/14 01:07:27;;;;;;;14.77;2.95;;;;;;;4.61;100.00;101215.63;6303941;22;20066;-90
2021/12/14 01:09:58;;;;;;;6.20;1.83;;;;;;;5.08;100.00;101228.31;6305177;22;20023;-90
2021/12/14 01:12:42;;;;;;;6.97;2.17;;;;;;;5.10;100.00;101239.53;6306237;22;20094;-90
2021/12/14 01:15:32;;;;;;;5.20;1.90;;;;;;;5.01;100.00;101228.34;6305380;22;20030;-90
2021/12/14 01:18:28;;;;;;;8.48;2.17;;;;;;;4.97;100.00;101224.03;6304560;22;20054;-90
2021/12/14 01:21:02;;;;;;;13.50;2.63;;;;;;;4.85;100.00;101220.66;6304466;22;20015;-90
2021/12/14 01:23:33;;;;;;;8.95;2.88;;;;;;;4.78;100.00;101226.75;6303602;22;20019;-91
2021/12/14 01:26:10;;;;;;;6.80;2.17;;;;;;;4.98;100.00;101233.56;6304699;22;20026;-90
2021/12/14 01:28:38;;;;;;;5.20;2.00;;;;;;;5.05;100.00;101235.25;6305724;22;20037;-90
2021/12/14 01:31:18;;;;;;;10.55;2.70;;;;;;;5.09;100.00;101236.94;6304099;22;20015;-90
2021/12/14 01:33:51;;;;;;;6.68;2.22;;;;;;;4.99;100.00;101222.28;6304225;22;20037;-89
2021/12/14 01:36:25;;;;;;;12.18;3.03;;;;;;;4.77;100.00;101203.41;6304437;22;20026;-89
2021/12/14 01:42:08;;;;;;;5.20;1.58;;;;;;;5.02;100.00;101197.19;6275378;22;20758;-89
2021/12/14 01:44:42;;;;;;;7.72;1.75;;;;;;;4.85;100.00;101188.66;6304634;22;20015;-90
2021/12/14 01:47:13;;;;;;;10.38;2.50;;;;;;;4.72;100.00;101198.25;6305859;22;20030;-90
2021/12/14 01:49:41;;;;;;;9.77;3.17;;;;;;;4.55;100.00;101196.63;6304622;22;20019;-90
2021/12/14 01:52:18;;;;;;;7.85;2.42;;;;;;;4.52;100.00;101175.88;6304621;22;20025;-89
2021/12/14 01:54:51;;;;;;;6.28;1.95;;;;;;;5.11;100.00;101219.63;6306552;22;20023;-89
2021/12/14 01:57:22;;;;;;;6.55;2.17;;;;;;;5.13;100.00;101208.38;6305271;22;20051;-89
2021/12/14 01:59:54;;;;;;;5.85;1.90;;;;;;;5.17;100.00;101206.59;6304627;22;20022;-90
2021/12/14 02:02:41;;;;;;;8.43;2.13;;;;;;;5.41;100.00;101222.84;6304335;22;20042;-90
2021/12/14 02:05:26;;;;;;;8.73;2.13;;;;;;;5.26;100.00;101216.06;6304910;22;20181;-89
2021/12/14 02:07:54;;;;;;;9.95;2.47;;;;;;;5.17;100.00;101201.41;6303488;22;20106;-90
2021/12/14 02:10:27;;;;;;;7.90;1.95;;;;;;;5.23;100.00;101200.50;6305134;22;20437;-88
2021/12/14 02:12:54;;;;;;;11.85;2.30;;;;;;;5.05;100.00;101171.22;6303807;22;20029;-89
2021/12/14 02:15:29;;;;;;;9.95;3.25;;;;;;;5.17;100.00;101188.44;6304819;22;20025;-89
2021/12/14 02:17:58;;;;;;;5.53;1.60;;;;;;;5.20;100.00;101201.38;6306635;22;20026;-90
2021/12/14 02:20:29;;;;;;;6.38;1.70;;;;;;;5.22;100.00;101193.56;6305726;22;20062;-89
2021/12/14 02:22:57;;;;;;;6.55;1.70;;;;;;;5.32;100.00;101201.25;6303188;22;20019;-90
2021/12/14 02:25:24;;;;;;;9.27;1.80;;;;;;;5.33;100.00;101183.97;6304429;22;20704;-89
2021/12/14 02:27:53;;;;;;;8.30;2.08;;;;;;;5.24;100.00;101190.09;6306320;22;20449;-90
2021/12/14 02:30:26;;;;;;;12.05;2.25;;;;;;;5.19;100.00;101178.00;6304636;22;20034;-90
2021/12/14 02:32:54;;;;;;;5.80;2.00;;;;;;;5.29;100.00;101177.06;6304047;22;20334;-89
2021/12/14 02:35:24;;;;;;;7.03;2.03;;;;;;;5.27;100.00;101150.25;6306099;22;20073;-89
2021/12/14 02:38:05;;;;;;;8.40;1.85;;;;;;;5.66;100.00;101192.31;6306371;22;20314;-90
2021/12/14 02:40:57;;;;;;;6.57;1.83;;;;;;;5.68;100.00;101193.16;6306296;22;20019;-90
2021/12/14 02:43:39;;;;;;;6.57;1.63;;;;;;;5.88;100.00;101198.16;6305090;22;20029;-89
2021/12/14 02:46:17;;;;;;;7.43;1.80;;;;;;;5.74;100.00;101185.31;6305971;22;20054;-90
2021/12/14 02:48:50;;;;;;;4.10;1.50;;;;;;;5.99;100.00;101185.06;6305933;22;20023;-90
2021/12/14 02:51:23;;;;;;;7.95;1.85;;;;;;;6.13;100.00;101188.38;6304936;22;20082;-90
2021/12/14 02:53:55;;;;;;;4.78;1.40;;;;;;;5.99;100.00;101156.47;6307678;22;20472;-89
2021/12/14 02:56:25;;;;;;;7.97;2.78;;;;;;;6.13;100.00;101177.97;6306112;22;20019;-90
2021/12/14 02:59:02;;;;;;;8.70;2.40;;;;;;;6.04;100.00;101160.75;6306241;22;20718;-90
2021/12/14 03:01:30;;;;;;;5.95;1.50;;;;;;;6.17;100.00;101177.03;6306212;22;20015;-90
2021/12/14 03:04:03;;;;;;;8.98;2.40;;;;;;;6.18;100.00;101160.56;6305528;22;20019;-89
2021/12/14 03:06:33;;;;;;;7.72;2.33;;;;;;;6.20;100.00;101158.81;6308003;22;20486;-91
2021/12/14 03:09:19;;;;;;;7.45;1.70;;;;;;;6.35;100.00;101151.69;6306933;22;20019;-90
2021/12/14 03:11:47;;;;;;;8.57;1.67;;;;;;;6.57;100.00;101147.03;6305406;22;20342;-91
2021/12/14 03:14:14;;;;;;;6.07;1.50;;;;;;;6.73;100.00;101148.53;6306109;22;20023;-90
2021/12/14 03:16:41;;;;;;;14.82;2.08;;;;;;;6.69;100.00;101139.03;6305465;22;20106;-90
2021/12/14 03:19:09;;;;;;;9.32;2.00;;;;;;;6.65;100.00;101132.19;6306103;22;20023;-91
2021/12/14 03:21:41;;;;;;;4.35;1.58;;;;;;;6.93;100.00;101148.22;6304253;22;20449;-91
2021/12/14 03:24:15;;;;;;;7.45;1.60;;;;;;;7.03;100.00;101152.41;6306026;22;20475;-90
2021/12/14 03:26:45;;;;;;;8.27;1.98;;;;;;;6.99;100.00;101140.34;6306090;22;20098;-91
2021/12/14 03:29:17;;;;;;;10.52;1.90;;;;;;;7.01;100.00;101161.13;6305664;22;20055;-90
2021/12/14 03:31:48;;;;;;;4.82;1.52;;;;;;;6.84;100.00;101143.19;6304074;22;20020;-90
2021/12/14 03:34:16;;;;;;;8.88;2.00;;;;;;;6.74;100.00;101142.44;6306414;22;20024;-90
2021/12/14 03:36:48;;;;;;;8.93;2.03;;;;;;;6.88;100.00;101147.44;6306546;22;20019;-90
2021/12/14 03:39:19;;;;;;;4.57;1.65;;;;;;;6.87;100.00;101131.84;6305210;22;20023;-90
2021/12/14 03:41:56;;;;;;;3.55;1.35;;;;;;;6.78;100.00;101154.53;6304529;22;20336;-90
2021/12/14 03:44:27;;;;;;;5.40;1.50;;;;;;;6.60;100.00;101147.00;6306282;22;20023;-89
2021/12/14 03:47:02;;;;;;;7.40;1.65;;;;;;;6.39;100.00;101109.13;6306612;22;20023;-91
2021/12/14 03:49:37;;;;;;;5.70;1.50;;;;;;;6.50;100.00;101137.59;6306307;22;20030;-90
2021/12/14 03:52:10;;;;;;;6.97;1.75;;;;;;;6.18;100.00;101118.09;6304738;22;20449;-90
2021/12/14 03:54:38;;;;;;;4.50;1.55;;;;;;;6.26;100.00;101108.47;6305708;22;20015;-90
2021/12/14 03:57:05;;;;;;;7.13;1.80;;;;;;;6.19;100.00;101123.28;6305605;22;20344;-90
2021/12/14 03:59:33;;;;;;;14.63;2.95;;;;;;;6.26;100.00;101121.47;6306889;22;20025;-89
2021/12/14 04:02:03;;;;;;;10.73;1.67;;;;;;;6.41;100.00;101109.97;6305133;22;20388;-90
2021/12/14 04:04:43;;;;;;;11.30;2.33;;;;;;;6.14;100.00;101093.03;6307482;22;20425;-91
2021/12/14 04:07:14;;;;;;;13.85;2.25;;;;;;;6.33;100.00;101065.88;6305368;22;20029;-90
2021/12/14 04:09:42;;;;;;;6.90;1.80;;;;;;;6.17;100.00;101073.03;6304874;22;20019;-89
2021/12/14 04:12:16;;;;;;;6.88;1.80;;;;;;;6.16;100.00;101053.13;6305420;22;20034;-90
2021/12/14 04:14:47;;;;;;;6.63;1.90;;;;;;;6.23;100.00;101046.09;6306107;22;20030;-90
2021/12/14 04:17:14;;;;;;;7.13;1.80;;;;;;;6.16;100.00;101054.84;6305724;22;20034;-90
2021/12/14 04:19:41;;;;;;;12.82;2.30;;;;;;;6.05;100.00;101031.63;6307016;22;20395;-89
2021/12/14 04:22:14;;;;;;;8.63;1.92;;;;;;;6.27;100.00;101047.78;6304359;22;20326;-90
2021/12/14 04:24:41;;;;;;;11.70;2.58;;;;;;;6.11;100.00;101054.06;6305793;22;20024;-90
2021/12/14 04:27:13;;;;;;;7.95;1.98;;;;;;;6.20;100.00;101059.16;6304855;22;20029;-90
2021/12/14 04:29:40;;;;;;;14.32;2.40;;;;;;;6.16;100.00;101041.84;6304537;22;20065;-90
2021/12/14 04:32:09;;;;;;;7.97;1.92;;;;;;;6.33;100.00;101046.81;6303860;22;20023;-90
2021/12/14 04:34:37;;;;;;;10.73;2.65;;;;;;;5.85;100.00;101004.13;6305561;22;20023;-89
2021/12/14 04:37:04;;;;;;;9.40;2.20;;;;;;;6.15;100.00;101037.56;6307460;22;20019;-90
2021/12/14 04:39:45;;;;;;;10.23;2.22;;;;;;;5.83;100.00;100984.25;6305351;22;20016;-90
2021/12/14 04:53:54;;;;;;;8.75;2.17;;;;;;;5.84;100.00;100929.66;6305700;22;20026;-90
2021/12/14 04:56:27;;;;;;;9.07;2.40;;;;;;;6.24;100.00;101019.22;6305708;22;20094;-90
2021/12/14 04:58:59;;;;;;;9.20;2.55;;;;;;;5.78;100.00;100965.28;6304040;22;20098;-90
2021/12/14 05:01:35;;;;;;;12.35;2.60;;;;;;;5.92;100.00;100970.28;6304565;22;20026;-90
2021/12/14 05:04:07;;;;;;;10.68;2.25;;;;;;;5.97;100.00;100997.94;6304382;22;20035;-91
2021/12/14 05:06:53;;;;;;;10.60;2.50;;;;;;;6.01;100.00;100999.59;6304220;22;20015;-90
2021/12/14 05:09:28;;;;;;;11.10;2.22;;;;;;;5.97;100.00;100995.34;6304536;22;20232;-91
2021/12/14 05:12:20;;;;;;;11.73;2.42;;;;;;;5.90;100.00;100972.91;6303811;22;20023;-90
2021/12/14 05:14:47;;;;;;;20.55;3.42;;;;;;;5.98;100.00;100993.59;6304782;22;20102;-88
2021/12/14 05:17:21;;;;;;;10.00;2.80;;;;;;;6.13;100.00;101000.31;6306334;22;20019;-90
2021/12/14 05:19:51;;;;;;;9.88;2.90;;;;;;;6.49;100.00;100988.47;6304266;22;20019;-89
2021/12/14 05:22:27;;;;;;;7.43;2.40;;;;;;;6.05;100.00;100974.44;6302646;22;20015;-90
2021/12/14 05:25:00;;;;;;;10.77;2.22;;;;;;;6.49;100.00;100967.66;6304226;22;20098;-89
2021/12/14 05:27:33;;;;;;;7.93;1.83;;;;;;;6.65;100.00;100960.44;6304246;22;20026;-90
2021/12/14 05:30:22;;;;;;;8.18;2.03;;;;;;;6.59;100.00;100947.56;6304439;22;20336;-90
2021/12/14 05:32:49;;;;;;;8.85;2.53;;;;;;;6.54;100.00;100939.81;6302928;22;20019;-89
2021/12/14 05:35:19;;;;;;;11.23;2.55;;;;;;;6.45;100.00;100947.78;6305899;22;20476;-89
2021/12/14 05:37:50;;;;;;;12.93;3.47;;;;;;;6.29;100.00;100933.34;6304717;22;20026;-89
2021/12/14 05:43:16;;;;;;;11.23;2.97;;;;;;;6.43;100.00;100928.75;6305505;22;20350;-90
2021/12/14 05:45:53;;;;;;;11.87;2.47;;;;;;;6.41;100.00;100918.38;6306077;22;20106;-89
2021/12/14 05:48:26;;;;;;;7.55;2.40;;;;;;;6.50;100.00;100929.50;6303486;22;20254;-89
2021/12/14 05:50:57;;;;;;;9.57;2.50;;;;;;;6.57;100.00;100916.38;6304229;22;20356;-89
2021/12/14 05:53:40;;;;;;;10.35;2.80;;;;;;;6.42;100.00;100909.66;6303719;22;20031;-89
2021/12/14 05:56:13;;;;;;;10.27;2.70;;;;;;;6.25;100.00;100914.31;6304885;22;20023;-90
2021/12/14 05:58:41;;;;;;;10.95;2.97;;;;;;;6.34;100.00;100897.69;6304397;22;20101;-89
2021/12/14 06:01:12;;;;;;;11.35;3.10;;;;;;;6.52;100.00;100891.31;6303499;22;20532;-89
2021/12/14 06:03:46;;;;;;;12.07;3.60;;;;;;;6.31;100.00;100902.97;6304187;22;20084;-89
2021/12/14 06:06:21;;;;;;;9.43;3.25;;;;;;;6.28;100.00;100893.44;6302351;22;20026;-90
2021/12/14 06:08:48;;;;;;;13.60;3.35;;;;;;;6.29;100.00;100884.78;6303506;22;20094;-90
2021/12/14 06:11:26;;;;;;;11.93;3.08;;;;;;;6.45;100.00;100882.75;6302056;22;20019;-90
2021/12/14 06:13:52;;;;;;;13.65;3.50;;;;;;;6.35;100.00;100882.06;6304928;22;20023;-89
2021/12/14 06:16:30;;;;;;;10.57;3.65;;;;;;;6.24;100.00;100897.84;6304984;22;20030;-89
2021/12/14 06:19:22;;;;;;;13.60;4.03;;;;;;;6.26;100.00;100880.47;6306622;22;20023;-90
2021/12/14 06:21:54;;;;;;;12.95;3.85;;;;;;;6.23;100.00;100901.34;6303112;22;20479;-89
2021/12/14 06:24:24;;;;;;;12.70;5.88;;;;;;;6.40;100.00;100877.63;6304977;22;20027;-89
2021/12/14 06:26:59;;;;;;;15.18;5.25;;;;;;;6.38;100.00;100902.81;6304457;22;20050;-90
2021/12/14 06:29:38;;;;;;;12.57;3.95;;;;;;;6.21;100.00;100894.44;6302822;22;20023;-89
2021/12/14 06:32:27;;;;;;;12.40;4.05;;;;;;;6.33;100.00;100906.38;6302510;22;20022;-89
2021/12/14 06:34:58;;;;;;;13.10;3.85;;;;;;;6.47;100.00;100887.03;6304604;22;20019;-90
2021/12/14 06:37:55;;;;;;;16.33;4.07;;;;;;;6.13;100.00;100878.13;6304702;22;20106;-90
2021/12/14 06:40:26;;;;;;;9.68;3.33;;;;;;;6.43;100.00;100887.16;6304952;22;20027;-89
2021/12/14 06:42:56;;;;;;;15.98;3.67;;;;;;;6.40;100.00;100898.44;6302733;22;20022;-89
2021/12/14 06:45:40;;;;;;;8.82;3.50;;;;;;;6.53;100.00;100893.03;6303902;22;20015;-89
2021/12/14 06:48:12;;;;;;;11.95;3.80;;;;;;;6.57;100.00;100889.47;6305444;22;20027;-89
2021/12/14 06:51:05;;;;;;;14.35;3.72;;;;;;;6.35;100.00;100861.25;6306132;22;20754;-90
2021/12/14 06:53:36;;;;;;;12.93;4.63;;;;;;;6.32;100.00;100879.53;6305290;22;20453;-91
2021/12/14 06:56:08;;;;;;;9.90;3.92;;;;;;;6.40;100.00;100872.44;6304527;22;20020;-91
2021/12/14 06:58:57;;;;;;;12.13;3.95;;;;;;;6.45;100.00;100888.81;6305871;22;20441;-90
2021/12/14 07:01:26;;;;;;;9.95;3.38;;;;;;;6.26;100.00;100888.28;6302112;22;20019;-91
2021/12/14 07:04:00;;;;;;;11.80;4.13;;;;;;;6.40;100.00;100874.19;6305449;22;20501;-90
2021/12/14 07:06:41;;;;;;;11.27;3.58;;;;;;;6.55;100.00;100878.22;6304269;22;20456;-91
2021/12/14 07:09:12;;;;;;;10.57;3.65;;;;;;;6.52;100.00;100871.34;6304565;22;20023;-90
2021/12/14 07:11:44;;;;;;;8.63;3.25;;;;;;;6.51;100.00;100864.44;6302553;22;20674;-91
2021/12/14 07:14:26;;;;;;;11.48;3.38;;;;;;;6.61;100.00;100873.78;6303463;22;20020;-91
2021/12/14 07:16:56;;;;;;;11.23;3.10;;;;;;;6.48;100.00;100835.91;6305634;22;20016;-91
2021/12/14 07:19:46;;;;;;;17.45;3.70;;;;;;;6.62;100.00;100862.50;6306810;22;20023;-91
2021/12/14 07:22:39;;;;;;;12.80;4.00;;;;;;;6.60;100.00;100851.25;6304888;22;20551;-91
2021/12/14 07:25:21;;;;;;;10.27;3.97;;;;;;;6.72;100.00;100849.31;6306084;22;20026;-89
2021/12/14 07:27:59;;;;;;;13.27;3.83;;;;;;;6.67;100.00;100844.19;6305554;22;20019;-89
2021/12/14 07:30:30;;;;;;;9.77;3.60;;;;;;;6.42;100.00;100836.84;6306133;22;20023;-89
2021/12/14 07:33:03;;;;;;;11.48;3.55;;;;;;;6.81;100.00;100842.16;6304556;22;20023;-89
2021/12/14 07:35:53;;;;;;;11.73;3.83;;;;;;;6.54;100.00;100833.16;6305585;22;20022;-89
2021/12/14 07:38:30;;;;;;;14.75;4.43;;;;;;;6.52;100.00;100832.34;6305436;22;20106;-90
2021/12/14 07:41:06;;;;;;;14.68;3.90;;;;;;;6.67;100.00;100830.31;6304896;22;20725;-89
2021/12/14 07:43:37;;;;;;;8.95;3.50;;;;;;;6.59;100.00;100814.88;6307096;22;20102;-89
2021/12/14 07:46:42;;;;;;;15.20;4.22;;;;;;;6.90;100.00;100830.69;6308237;22;20461;-88
2021/12/14 07:49:35;;;;;;;10.80;3.63;;;;;;;6.73;100.00;100822.38;6307441;22;20026;-89
2021/12/14 07:52:28;;;;;;;11.45;4.30;;;;;;;6.44;100.00;100769.19;6305782;22;20018;-89
2021/12/14 07:55:02;;;;;;;9.93;3.50;;;;;;;6.67;100.00;100793.91;6306657;22;20106;-89
2021/12/14 07:57:32;;;;;;;9.75;3.67;;;;;;;6.88;100.00;100806.44;6307727;22;20098;-90
2021/12/14 08:00:21;;;;;;;12.82;3.92;;;;;;;6.92;100.00;100820.25;6305673;22;20461;-84
2021/12/14 08:02:50;;;;;;;10.13;3.50;;;;;;;7.10;100.00;100808.59;6304761;22;20061;-90
2021/12/14 08:05:30;;;;;;;11.45;4.30;;;;;;;6.88;100.00;100813.41;6305696;22;20102;-90
2021/12/14 08:08:08;;;;;;;10.50;4.15;;;;;;;7.16;100.00;100814.53;6307338;22;20558;-90
2021/12/14 08:10:40;;;;;;;10.32;4.22;;;;;;;7.09;100.00;100828.56;6305729;22;20054;-90
2021/12/14 08:13:09;;;;;;;8.50;4.00;;;;;;;7.12;100.00;100810.28;6304024;22;20011;-90
2021/12/14 08:15:51;;;;;;;12.98;4.00;;;;;;;6.91;100.00;100798.59;6306767;22;20023;-90
2021/12/14 08:18:31;;;;;;;13.30;5.23;;;;;;;6.94;100.00;100793.31;6306256;22;20031;-90
2021/12/14 08:21:11;;;;;;;14.80;4.40;;;;;;;6.98;100.00;100794.13;6305282;22;20029;-90
2021/12/14 08:23:41;;;;;;;14.00;4.43;;;;;;;6.94;100.00;100785.50;6305845;22;20016;-88
2021/12/14 08:26:18;;;;;;;13.43;4.00;;;;;;;7.22;100.00;100801.38;6306259;22;20023;-90
2021/12/14 08:29:00;;;;;;;10.52;3.67;;;;;;;7.19;100.00;100791.03;6307535;22;20441;-89
2021/12/14 08:31:32;;;;;;;12.55;4.28;;;;;;;7.23;100.00;100784.84;6304711;22;20025;-90
2021/12/14 08:34:03;;;;;;;11.95;3.95;;;;;;;7.25;100.00;100794.38;6304606;22;20019;-89
2021/12/14 08:36:50;;;;;;;9.40;3.45;;;;;;;7.46;100.00;100800.84;6305459;22;20443;-89
2021/12/14 08:39:21;;;;;;;8.60;2.95;;;;;;;6.74;100.00;100718.25;6306749;22;20019;-89
2021/12/14 08:41:55;;;;;;;11.48;3.20;;;;;;;7.10;100.00;100773.00;6305583;22;20011;-90
2021/12/14 08:44:35;;;;;;;7.55;2.80;;;;;;;7.30;100.00;100769.94;6305772;22;20023;-89
2021/12/14 08:47:11;;;;;;;8.18;3.22;;;;;;;7.40;100.00;100744.50;6307768;22;20054;-89
2021/12/14 08:49:41;;;;;;;15.48;3.63;;;;;;;7.40;100.00;100750.59;6307534;22;20042;-89
2021/12/14 08:52:10;;;;;;;9.75;3.05;;;;;;;7.38;100.00;100726.34;6303848;22;20019;-89
2021/12/14 08:54:38;;;;;;;9.82;3.88;;;;;;;7.48;100.00;100757.38;6306997;22;20110;-89
2021/12/14 08:57:18;;;;;;;9.00;3.28;;;;;;;7.54;100.00;100771.13;6305772;22;20445;-89
2021/12/14 08:59:48;;;;;;;8.90;2.83;;;;;;;7.38;100.00;100751.50;6305884;22;20456;-89
2021/12/14 09:02:16;;;;;;;7.60;2.45;;;;;;;7.52;100.00;100759.00;6305602;22;20446;-88
2021/12/14 09:04:55;;;;;;;8.07;3.03;;;;;;;7.33;100.00;100724.72;6305270;22;20019;-89
2021/12/14 09:07:25;;;;;;;7.30;2.80;;;;;;;7.47;100.00;100753.03;6305020;22;20019;-89
2021/12/14 09:09:54;;;;;;;11.32;3.88;;;;;;;7.32;100.00;100738.66;6305184;22;20015;-90
2021/12/14 09:12:26;;;;;;;13.18;4.03;;;;;;;7.46;100.00;100741.78;6304215;22;20019;-89
2021/12/14 09:14:57;;;;;;;8.00;2.60;;;;;;;7.52;100.00;100751.19;6304752;22;20029;-90
2021/12/14 09:17:24;;;;;;;8.38;2.70;;;;;;;7.83;100.00;100761.69;6287109;22;20114;-90
2021/12/14 09:19:57;;;;;;;7.13;2.70;;;;;;;7.55;100.00;100733.72;6301088;22;20027;-90
2021/12/14 09:22:29;;;;;;;11.18;2.70;;;;;;;7.66;100.00;100730.00;6303002;22;20019;-90
2021/12/14 09:24:57;;;;;;;8.32;2.40;;;;;;;7.77;100.00;100727.97;6304735;22;20015;-90
2021/12/14 09:27:28;;;;;;;9.10;2.13;;;;;;;7.94;100.00;100722.31;6304478;22;20448;-90
2021/12/14 09:29:56;;;;;;;6.00;2.25;;;;;;;7.70;100.00;100735.09;6304983;22;20019;-91
2021/12/14 09:32:28;;;;;;;6.55;2.13;;;;;;;7.79;100.00;100737.47;6304654;22;20469;-90
2021/12/14 09:34:57;;;;;;;6.05;2.00;;;;;;;8.04;100.00;100738.56;6302957;22;20029;-91
2021/12/14 09:37:26;;;;;;;6.80;2.38;;;;;;;8.31;100.00;100743.00;6304168;22;20015;-90
2021/12/14 09:39:58;;;;;;;7.18;1.95;;;;;;;7.95;100.00;100717.06;6304875;22;20025;-90
2021/12/14 09:42:32;;;;;;;7.13;1.95;;;;;;;8.05;100.00;100715.03;6303626;22;20011;-89
2021/12/14 09:45:10;;;;;;;5.68;2.03;;;;;;;8.11;100.00;100729.66;6305550;22;20026;-89
2021/12/14 09:47:38;;;;;;;5.43;1.80;;;;;;;8.21;100.00;100725.91;6305358;22;20493;-90
2021/12/14 09:50:12;;;;;;;4.50;1.80;;;;;;;8.01;100.00;100744.72;6304424;22;20062;-89
2021/12/14 09:52:43;;;;;;;5.57;1.88;;;;;;;8.29;100.00;100744.81;6303111;22;20015;-91
2021/12/14 09:55:18;;;;;;;7.03;1.80;;;;;;;8.29;100.00;100731.78;6305010;22;20344;-89
2021/12/14 09:57:53;;;;;;;5.50;1.75;;;;;;;8.31;100.00;100736.94;6304614;22;20467;-90
2021/12/14 10:00:39;;;;;;;7.72;2.08;;;;;;;8.52;100.00;100749.41;6304195;22;20019;-90
2021/12/14 10:03:08;;;;;;;4.97;1.60;;;;;;;8.58;100.00;100740.53;6303982;22;20023;-91
2021/12/14 10:05:57;;;;;;;5.63;1.90;;;;;;;8.72;100.00;100764.47;6304567;22;20015;-90
2021/12/14 10:08:30;;;;;;;5.45;1.60;;;;;;;8.53;100.00;100747.66;6304348;22;20130;-91
2021/12/14 10:11:34;;;;;;;5.07;1.83;;;;;;;8.68;100.00;100767.25;6304636;22;20094;-91
2021/12/14 10:14:03;;;;;;;5.45;1.83;;;;;;;8.72;100.00;100774.94;6304411;22;20357;-91
2021/12/14 10:16:31;;;;;;;4.05;1.48;;;;;;;8.61;100.00;100756.13;6304797;22;20019;-91
2021/12/14 10:19:06;;;;;;;4.00;1.50;;;;;;;8.60;100.00;100754.41;6304660;22;20100;-91
2021/12/14 10:21:38;;;;;;;5.30;2.00;;;;;;;8.31;100.00;100737.78;6303249;22;20026;-91
2021/12/14 10:24:07;;;;;;;4.82;1.70;;;;;;;8.72;100.00;100751.44;6304434;22;20019;-91
2021/12/14 10:26:38;;;;;;;6.22;1.85;;;;;;;8.70;100.00;100752.38;6305251;22;20027;-91
2021/12/14 10:29:05;;;;;;;5.80;1.50;;;;;;;8.73;100.00;100747.94;6305042;22;20441;-89
2021/12/14 10:31:59;;;;;;;4.00;1.58;;;;;;;9.15;100.00;100769.31;6303751;22;20023;-91
2021/12/14 10:34:32;;;;;;;4.00;1.50;;;;;;;8.88;100.00;100753.59;6305244;22;20042;-92
2021/12/14 10:37:15;;;;;;;4.35;1.50;;;;;;;8.86;100.00;100766.69;6304847;22;20084;-91
2021/12/14 10:45:27;;;;;;;5.68;1.60;;;;;;;9.07;100.00;100770.41;6306175;22;20026;-91
2021/12/14 10:47:56;;;;;;;3.40;1.50;;;;;;;9.31;100.00;100784.47;6305043;22;20345;-90
2021/12/14 10:50:27;;;;;;;4.70;1.40;;;;;;;9.47;100.00;100779.63;6304918;22;20020;-91
2021/12/14 10:52:55;;;;;;;4.93;1.33;;;;;;;9.46;100.00;100756.97;6306632;22;20026;-91
2021/12/14 10:55:31;;;;;;;6.20;1.40;;;;;;;9.45;100.00;100776.16;6306450;22;20461;-90
2021/12/14 10:57:58;;;;;;;4.05;1.55;;;;;;;9.36;100.00;100752.09;6306193;22;20030;-90
2021/12/14 11:00:37;;;;;;;3.75;1.40;;;;;;;9.49;100.00;100779.53;6305890;22;20094;-90
2021/12/14 11:03:15;;;;;;;4.93;1.40;;;;;;;9.60;100.00;100782.69;6304938;22;20073;-90
2021/12/14 11:05:46;;;;;;;2.85;1.23;;;;;;;9.53;100.00;100786.41;6306836;22;20333;-90
2021/12/14 11:08:36;;;;;;;2.70;1.10;;;;;;;9.59;100.00;100791.41;6306488;22;20030;-90
2021/12/14 11:11:09;;;;;;;4.03;1.38;;;;;;;9.62;100.00;100782.63;6306985;22;20069;-90
2021/12/14 11:13:45;;;;;;;3.97;1.30;;;;;;;9.39;100.00;100772.91;6306278;22;20020;-90
2021/12/14 11:16:21;;;;;;;4.95;1.45;;;;;;;9.33;100.00;100776.59;6305166;22;20697;-91
2021/12/14 11:18:49;;;;;;;2.97;1.27;;;;;;;9.36;100.00;100758.19;6305554;22;20023;-90
2021/12/14 11:21:21;;;;;;;2.83;1.30;;;;;;;9.22;100.00;100779.50;6304571;22;20020;-90
2021/12/14 11:23:52;;;;;;;3.72;1.20;;;;;;;9.41;100.00;100776.34;6306047;22;20018;-90
2021/12/14 11:26:34;;;;;;;2.95;1.20;;;;;;;9.47;100.00;100776.13;6305521;22;20029;-90
2021/12/14 11:29:13;;;;;;;2.70;1.20;;;;;;;9.44;100.00;100761.41;6305802;22;20019;-89
2021/12/14 11:31:45;;;;;;;4.93;1.50;;;;;;;9.26;100.00;100773.31;6306058;22;20019;-89
2021/12/14 11:34:17;;;;;;;2.30;1.10;;;;;;;9.36;100.00;100765.16;6305281;22;20023;-89
2021/12/14 11:36:51;;;;;;;5.73;1.80;;;;;;;9.30;100.00;100768.84;6307577;22;20747;-89
2021/12/14 11:39:28;;;;;;;;;;;;;;;9.19;100.00;100766.56;6305904;22;20232;-89
2021/12/14 11:41:59;;;;;;;2.72;1.20;;;;;;;9.07;100.00;100761.72;6304916;22;19918;-89
2021/12/14 11:44:30;;;;;;;3.53;1.30;;;;;;;9.21;100.00;100759.53;6307812;22;20019;-88
2021/12/14 11:47:01;;;;;;;5.13;1.40;;;;;;;9.34;100.00;100772.22;6305882;22;20025;-88
2021/12/14 11:50:04;;;;;;;2.47;1.20;;;;;;;9.45;100.00;100772.72;6304895;22;20085;-88
2021/12/14 11:52:42;;;;;;;2.63;1.30;;;;;;;9.48;100.00;100773.47;6284192;22;20585;-88
2021/12/14 11:55:18;;;;;;;3.38;1.40;;;;;;;9.30;100.00;100795.81;6307258;22;20232;-88
2021/12/14 11:57:46;;;;;;;2.95;1.20;;;;;;;9.43;100.00;100779.75;6306927;22;20022;-88
2021/12/14 12:00:19;;;;;;;4.28;1.38;;;;;;;9.36;100.00;100762.56;6305651;22;20023;-88
2021/12/14 12:02:46;;;;;;;5.03;1.33;;;;;;;9.34;100.00;100790.50;6305897;22;20015;-89
2021/12/14 12:05:20;;;;;;;3.92;1.23;;;;;;;9.26;100.00;100781.16;6305420;22;20030;-90
2021/12/14 12:10:53;;;;;;;2.42;1.35;;;;;;;9.56;100.00;100790.66;6242164;23;20446;-89
2021/12/14 12:13:33;;;;;;;4.32;1.17;;;;;;;9.25;100.00;100761.13;6242228;23;20042;-90
2021/12/14 12:16:19;;;;;;;3.72;1.40;;;;;;;9.50;100.00;100762.97;6278904;22;20085;-90
2021/12/14 12:19:21;;;;;;;2.42;1.20;;;;;;;9.25;100.00;100791.66;6306796;22;20453;-90
2021/12/14 12:21:51;;;;;;;3.33;1.60;;;;;;;9.41;100.00;100785.03;6278307;22;20397;-91
2021/12/14 12:24:39;;;;;;;3.45;1.55;;;;;;;9.39;100.00;100784.22;6305706;22;20094;-91
2021/12/14 12:27:30;;;;;;;4.75;1.60;;;;;;;9.09;100.00;100752.94;6306608;22;20487;-91